Time;durP1;ratioP1;P1;durP2;ratioP2;P2;SDS_P1;SDS_P2;PMS_P1;PMS_P2;Temp;Humidity;BMP_temperature;BMP_pressure;BME280_temperature;BME280_humidity;BME280_pressure;Samples;Min_cycle;Max_cycle;Signal;HPM_P1;HPM_P2
2022/09/07 00:00:28;;;;;;;;;;;23.00;54.80;;;;;;5050241;28;19924;-85
2022/09/07 00:02:54;;;;;;;;;;;23.10;55.30;;;;;;5046643;28;19913;-84
2022/09/07 00:05:19;;;;;;;;;;;22.80;58.20;;;;;;5052379;28;19972;-83
2022/09/07 00:07:45;;;;;;;;;;;22.20;61.80;;;;;;5053691;28;20386;-84
2022/09/07 00:10:10;;;;;;;;;;;21.80;64.70;;;;;;5051448;28;19913;-84
2022/09/07 00:12:36;;;;;;;;;;;21.60;65.20;;;;;;5053208;28;19912;-83
2022/09/07 00:15:03;;;;;;;;;;;21.10;68.40;;;;;;5051040;28;19947;-83
2022/09/07 00:17:28;;;;;;;;;;;20.70;71.30;;;;;;5052861;28;19924;-84
2022/09/07 00:19:54;;;;;;;;;;;20.40;73.20;;;;;;5051210;28;19913;-82
2022/09/07 00:22:20;;;;;;;;;;;20.30;73.90;;;;;;5056723;28;19928;-83
2022/09/07 00:24:45;;;;;;;;;;;20.20;74.40;;;;;;5065221;28;19913;-83
2022/09/07 00:27:10;;;;;;;;;;;20.10;75.10;;;;;;5065760;28;19917;-82
2022/09/07 00:29:36;;;;;;;;;;;20.10;75.50;;;;;;5054001;28;19924;-83
2022/09/07 00:32:01;;;;;;;;;;;20.00;75.80;;;;;;5052225;28;19932;-84
2022/09/07 00:34:27;;;;;;;;;;;20.00;76.20;;;;;;5050249;28;19917;-83
2022/09/07 00:36:52;;;;;;;;;;;20.00;76.60;;;;;;5049903;28;19913;-83
2022/09/07 00:39:18;;;;;;;;;;;20.00;76.00;;;;;;5052982;28;19917;-83
2022/09/07 00:41:43;;;;;;;;;;;20.00;76.80;;;;;;5054546;28;19917;-83
2022/09/07 00:44:27;;;;;;;;;;;20.10;76.50;;;;;;5053045;28;19913;-83
2022/09/07 00:46:52;;;;;;;;;;;20.10;76.60;;;;;;5048266;28;19913;-83
2022/09/07 00:49:20;;;;;;;;;;;20.00;77.10;;;;;;5051335;28;20011;-84
2022/09/07 00:51:51;;;;;;;;;;;20.00;77.60;;;;;;5052942;28;20376;-83
2022/09/07 00:54:29;;;;;;;;;;;20.00;77.70;;;;;;5051798;28;20020;-84
2022/09/07 00:56:55;;;;;;;;;;;19.80;77.70;;;;;;5053078;28;19920;-84
2022/09/07 00:59:23;;;;;;;;;;;19.80;78.70;;;;;;5051885;28;19921;-82
2022/09/07 01:01:48;;;;;;;;;;;19.60;79.60;;;;;;5062432;28;19913;-83
2022/09/07 01:04:14;;;;;;;;;;;19.60;80.50;;;;;;5052329;28;19919;-83
2022/09/07 01:06:42;;;;;;;;;;;19.60;80.50;;;;;;5066422;28;19992;-83
2022/09/07 01:09:09;;;;;;;;;;;19.60;80.60;;;;;;5048192;28;19920;-83
2022/09/07 01:11:34;;;;;;;;;;;19.60;81.40;;;;;;5049742;28;19921;-83
2022/09/07 01:14:01;;;;;;;;;;;19.50;82.30;;;;;;5053902;28;19912;-82
2022/09/07 01:16:46;;;;;;;;;;;19.50;83.00;;;;;;5042573;28;19924;-83
2022/09/07 01:19:38;;;;;;;;;;;19.40;83.20;;;;;;5052133;28;19912;-83
2022/09/07 01:22:22;;;;;;;;;;;19.40;82.80;;;;;;5026781;28;20030;-83
2022/09/07 01:24:48;;;;;;;;;;;19.20;83.60;;;;;;5069855;28;20268;-83
2022/09/07 01:27:40;;;;;;;;;;;19.10;84.80;;;;;;5055506;28;19996;-85
2022/09/07 01:30:11;;;;;;;;;;;19.00;85.30;;;;;;5051625;28;19912;-81
2022/09/07 01:32:46;;;;;;;;;;;19.00;85.80;;;;;;5052089;28;20267;-81
2022/09/07 01:35:21;;;;;;;;;;;19.00;85.90;;;;;;5053090;28;20447;-81
2022/09/07 01:38:09;;;;;;;;;;;19.00;86.00;;;;;;5047793;28;19999;-82
2022/09/07 01:40:40;;;;;;;;;;;19.00;86.30;;;;;;5044490;28;20405;-82
2022/09/07 01:43:11;;;;;;;;;;;19.10;86.00;;;;;;5051073;28;20003;-83
2022/09/07 01:45:38;;;;;;;;;;;19.00;86.60;;;;;;5055816;28;19951;-83
2022/09/07 01:48:05;;;;;;;;;;;19.00;87.20;;;;;;5051833;28;19996;-82
2022/09/07 01:50:37;;;;;;;;;;;19.10;87.50;;;;;;5053274;28;19913;-83
2022/09/07 01:53:03;;;;;;;;;;;19.00;87.50;;;;;;5052632;28;19940;-82
2022/09/07 01:55:32;;;;;;;;;;;19.10;87.60;;;;;;5052011;28;19917;-83
2022/09/07 01:58:01;;;;;;;;;;;19.00;87.70;;;;;;5047741;28;20410;-83
2022/09/07 02:00:26;;;;;;;;;;;19.10;87.80;;;;;;5051318;28;19920;-82
2022/09/07 02:03:12;;;;;;;;;;;19.00;87.30;;;;;;5038540;28;20439;-83
2022/09/07 02:05:43;;;;;;;;;;;19.00;87.50;;;;;;5051036;28;20011;-83
2022/09/07 02:08:12;;;;;;;;;;;19.10;87.60;;;;;;5052399;28;20304;-83
2022/09/07 02:10:39;;;;;;;;;;;19.10;87.80;;;;;;5053909;28;20364;-83
2022/09/07 02:13:17;;;;;;;;;;;19.10;87.80;;;;;;5052569;28;19919;-82
2022/09/07 02:15:49;;;;;;;;;;;19.20;87.70;;;;;;5046711;28;19913;-83
2022/09/07 02:18:14;;;;;;;;;;;19.10;87.40;;;;;;5055142;28;19960;-83
2022/09/07 02:20:43;;;;;;;;;;;19.00;87.30;;;;;;5053453;28;19952;-83
2022/09/07 02:23:12;;;;;;;;;;;19.00;87.70;;;;;;5047567;28;20039;-83
2022/09/07 02:25:40;;;;;;;;;;;18.90;87.40;;;;;;5050632;28;19920;-83
2022/09/07 02:28:12;;;;;;;;;;;18.90;87.40;;;;;;5067482;28;19963;-83
2022/09/07 02:30:37;;;;;;;;;;;18.80;87.50;;;;;;5053054;28;20334;-83
2022/09/07 02:33:03;;;;;;;;;;;18.80;88.00;;;;;;5050689;28;19921;-83
2022/09/07 02:35:29;;;;;;;;;;;18.90;87.50;;;;;;5050168;28;19923;-83
2022/09/07 02:37:55;;;;;;;;;;;18.90;87.50;;;;;;5055832;28;19912;-83
2022/09/07 02:40:20;;;;;;;;;;;18.80;87.50;;;;;;5057691;28;19943;-82
2022/09/07 02:42:46;;;;;;;;;;;18.90;87.20;;;;;;5061976;28;20007;-83
2022/09/07 02:45:12;;;;;;;;;;;18.80;87.20;;;;;;5057609;28;19912;-82
2022/09/07 02:47:47;;;;;;;;;;;18.90;87.20;;;;;;5057597;28;19921;-83
2022/09/07 02:50:23;;;;;;;;;;;19.00;86.80;;;;;;5059696;28;19909;-82
2022/09/07 02:52:48;;;;;;;;;;;19.00;86.20;;;;;;5049012;28;20276;-83
2022/09/07 02:55:30;;;;;;;;;;;19.00;86.70;;;;;;5057140;28;20195;-82
2022/09/07 02:58:09;;;;;;;;;;;19.00;86.60;;;;;;5062646;28;19925;-83
2022/09/07 03:00:41;;;;;;;;;;;19.00;86.40;;;;;;5058889;28;19943;-82
2022/09/07 03:03:22;;;;;;;;;;;19.00;87.00;;;;;;5051866;28;19924;-83
2022/09/07 03:05:51;;;;;;;;;;;18.80;86.80;;;;;;5051719;28;19925;-82
2022/09/07 03:08:24;;;;;;;;;;;18.70;87.00;;;;;;5053067;28;19913;-82
2022/09/07 03:10:51;;;;;;;;;;;18.80;86.90;;;;;;5064958;28;19921;-83
2022/09/07 03:13:23;;;;;;;;;;;18.90;87.20;;;;;;5056774;28;19913;-82
2022/09/07 03:15:49;;;;;;;;;;;18.80;87.00;;;;;;5056038;28;19917;-82
2022/09/07 03:18:14;;;;;;;;;;;18.80;87.20;;;;;;5055810;28;19980;-83
2022/09/07 03:20:40;;;;;;;;;;;18.70;87.40;;;;;;5056007;28;19966;-83
2022/09/07 03:23:05;;;;;;;;;;;18.60;87.50;;;;;;5054691;28;19917;-82
2022/09/07 03:25:31;;;;;;;;;;;18.70;87.40;;;;;;5054137;28;19967;-82
2022/09/07 03:27:56;;;;;;;;;;;18.70;87.30;;;;;;5053628;28;19920;-82
2022/09/07 03:30:22;;;;;;;;;;;18.80;86.90;;;;;;5053701;28;19912;-82
2022/09/07 03:32:47;;;;;;;;;;;18.70;87.10;;;;;;5053054;28;19913;-83
2022/09/07 03:35:13;;;;;;;;;;;18.60;87.30;;;;;;5049752;28;19920;-82
2022/09/07 03:37:38;;;;;;;;;;;18.60;87.40;;;;;;5046832;28;19986;-82
2022/09/07 03:40:06;;;;;;;;;;;18.60;87.20;;;;;;5052291;28;19913;-82
2022/09/07 03:42:31;;;;;;;;;;;18.50;87.30;;;;;;5037676;28;20316;-82
2022/09/07 03:44:56;;;;;;;;;;;18.50;87.40;;;;;;5051142;28;19924;-83
2022/09/07 03:47:22;;;;;;;;;;;18.50;87.60;;;;;;5056603;28;19913;-83
2022/09/07 03:49:50;;;;;;;;;;;18.50;88.10;;;;;;5052553;28;19920;-83
2022/09/07 03:52:15;;;;;;;;;;;18.40;88.10;;;;;;5061635;28;19923;-81
2022/09/07 03:54:40;;;;;;;;;;;18.40;87.90;;;;;;5064333;28;19916;-82
2022/09/07 03:57:07;;;;;;;;;;;18.40;88.00;;;;;;5056171;28;20279;-83
2022/09/07 03:59:32;;;;;;;;;;;18.40;88.10;;;;;;5055121;28;19963;-83
2022/09/07 04:01:58;;;;;;;;;;;18.40;88.10;;;;;;5056207;28;19921;-83
2022/09/07 04:04:23;;;;;;;;;;;18.40;88.30;;;;;;5054064;28;19988;-83
2022/09/07 04:06:49;;;;;;;;;;;18.40;88.30;;;;;;5052859;28;19974;-83
2022/09/07 04:09:15;;;;;;;;;;;18.40;88.10;;;;;;5070498;28;19909;-83
2022/09/07 04:11:41;;;;;;;;;;;18.30;88.30;;;;;;5051309;28;20390;-83
2022/09/07 04:14:07;;;;;;;;;;;18.30;88.60;;;;;;5043707;28;19912;-82
2022/09/07 04:16:32;;;;;;;;;;;18.30;88.70;;;;;;5050908;28;19912;-83
2022/09/07 04:18:58;;;;;;;;;;;18.30;88.60;;;;;;5051929;28;19962;-83
2022/09/07 04:21:24;;;;;;;;;;;18.30;88.70;;;;;;5042953;28;19986;-83
2022/09/07 04:23:50;;;;;;;;;;;18.30;88.70;;;;;;5047589;28;19913;-84
2022/09/07 04:26:17;;;;;;;;;;;18.30;88.70;;;;;;5063814;28;19944;-83
2022/09/07 04:28:43;;;;;;;;;;;18.30;88.50;;;;;;5056753;28;19984;-83
2022/09/07 04:31:08;;;;;;;;;;;18.30;88.40;;;;;;5054405;28;19948;-83
2022/09/07 04:33:33;;;;;;;;;;;18.30;88.30;;;;;;5051457;28;20020;-83
2022/09/07 04:35:59;;;;;;;;;;;18.20;88.40;;;;;;5052758;28;19924;-82
2022/09/07 04:38:25;;;;;;;;;;;18.10;88.20;;;;;;5054107;28;19908;-83
2022/09/07 04:41:00;;;;;;;;;;;17.90;88.10;;;;;;5066392;28;19940;-83
2022/09/07 04:43:27;;;;;;;;;;;17.90;87.90;;;;;;5062016;28;19920;-83
2022/09/07 04:45:52;;;;;;;;;;;17.90;88.10;;;;;;5053569;28;20011;-83
2022/09/07 04:48:17;;;;;;;;;;;17.80;87.90;;;;;;5050755;28;19940;-82
2022/09/07 04:50:43;;;;;;;;;;;17.90;87.80;;;;;;5051993;28;19920;-82
2022/09/07 04:53:08;;;;;;;;;;;17.90;88.10;;;;;;5057171;28;19971;-83
2022/09/07 04:55:34;;;;;;;;;;;17.90;88.10;;;;;;5043552;28;19921;-83
2022/09/07 04:57:59;;;;;;;;;;;17.90;88.30;;;;;;5052334;28;20379;-85
2022/09/07 05:00:25;;;;;;;;;;;18.00;88.50;;;;;;5068909;22;20298;-77
2022/09/07 05:02:51;;;;;;;;;;;17.90;88.40;;;;;;5052564;28;20027;-76
2022/09/07 05:05:17;;;;;;;;;;;17.90;88.70;;;;;;5047223;28;20011;-79
2022/09/07 05:07:42;;;;;;;;;;;18.00;88.70;;;;;;5052150;28;19920;-79
2022/09/07 05:10:08;;;;;;;;;;;18.00;88.60;;;;;;5053148;28;20410;-78
2022/09/07 05:12:33;;;;;;;;;;;18.00;88.80;;;;;;5054622;28;19917;-79
2022/09/07 05:14:59;;;;;;;;;;;18.00;88.80;;;;;;5057817;28;19913;-78
2022/09/07 05:17:25;;;;;;;;;;;18.00;88.90;;;;;;5051993;28;19913;-78
2022/09/07 05:19:50;;;;;;;;;;;18.10;88.50;;;;;;5042238;28;19959;-78
2022/09/07 05:22:15;;;;;;;;;;;18.10;88.00;;;;;;5051622;28;19917;-80
2022/09/07 05:24:41;;;;;;;;;;;18.10;88.20;;;;;;5035768;28;19913;-79
2022/09/07 05:27:06;;;;;;;;;;;18.10;88.20;;;;;;5042273;28;19913;-78
2022/09/07 05:29:32;;;;;;;;;;;18.10;88.10;;;;;;5043936;28;19921;-79
2022/09/07 05:31:58;;;;;;;;;;;18.10;87.90;;;;;;5048199;28;20404;-78
2022/09/07 05:34:23;;;;;;;;;;;18.10;87.90;;;;;;5049868;28;19999;-78
2022/09/07 05:36:49;;;;;;;;;;;18.10;88.20;;;;;;5048431;28;19924;-79
2022/09/07 05:39:14;;;;;;;;;;;18.00;88.20;;;;;;5054488;28;19952;-79
2022/09/07 05:41:40;;;;;;;;;;;17.80;87.70;;;;;;5057475;28;20285;-80
2022/09/07 05:44:05;;;;;;;;;;;17.70;88.00;;;;;;5058474;28;19917;-79
2022/09/07 05:46:31;;;;;;;;;;;17.60;88.40;;;;;;5065625;28;19955;-79
2022/09/07 05:48:56;;;;;;;;;;;17.70;89.30;;;;;;5066522;28;20223;-79
2022/09/07 05:51:22;;;;;;;;;;;17.90;88.40;;;;;;5065862;28;19909;-79
2022/09/07 05:53:49;;;;;;;;;;;18.10;87.90;;;;;;5067393;28;19976;-79
2022/09/07 05:56:15;;;;;;;;;;;18.10;87.80;;;;;;5081765;28;19913;-79
2022/09/07 05:58:40;;;;;;;;;;;17.90;88.20;;;;;;5066086;28;19951;-79
2022/09/07 06:01:07;;;;;;;;;;;17.90;88.80;;;;;;5066622;28;20368;-79
2022/09/07 06:03:37;;;;;;;;;;;18.00;88.50;;;;;;5070524;28;19913;-79
2022/09/07 06:06:02;;;;;;;;;;;18.10;88.50;;;;;;5067302;28;19914;-79
2022/09/07 06:08:28;;;;;;;;;;;18.00;88.50;;;;;;5071361;28;19970;-79
2022/09/07 06:10:54;;;;;;;;;;;18.10;88.70;;;;;;5067297;28;20007;-79
2022/09/07 06:13:19;;;;;;;;;;;18.10;88.80;;;;;;5070844;28;19919;-80
2022/09/07 06:15:45;;;;;;;;;;;18.20;88.80;;;;;;5057458;28;19912;-80
2022/09/07 06:18:10;;;;;;;;;;;18.20;89.00;;;;;;5067477;28;19938;-80
2022/09/07 06:20:36;;;;;;;;;;;18.20;89.00;;;;;;5066268;28;19915;-79
2022/09/07 06:23:02;;;;;;;;;;;18.30;89.10;;;;;;5067619;28;19912;-80
2022/09/07 06:25:27;;;;;;;;;;;18.40;89.20;;;;;;5061456;28;19917;-80
2022/09/07 06:27:53;;;;;;;;;;;18.50;89.10;;;;;;5060909;28;19917;-80
2022/09/07 06:30:19;;;;;;;;;;;18.50;88.80;;;;;;5059073;28;19916;-81
2022/09/07 06:32:45;;;;;;;;;;;18.50;88.60;;;;;;5061226;28;19913;-80
2022/09/07 06:35:10;;;;;;;;;;;18.50;88.90;;;;;;5060099;28;19959;-80
2022/09/07 06:37:36;;;;;;;;;;;18.60;88.80;;;;;;5062248;28;19913;-80
2022/09/07 06:40:02;;;;;;;;;;;18.60;88.50;;;;;;5072885;28;19913;-80
2022/09/07 06:42:27;;;;;;;;;;;18.70;88.50;;;;;;5063409;28;19916;-79
2022/09/07 06:44:53;;;;;;;;;;;18.60;88.20;;;;;;5056521;28;19995;-78
2022/09/07 06:47:18;;;;;;;;;;;18.60;88.40;;;;;;5053180;28;19912;-79
2022/09/07 06:49:44;;;;;;;;;;;18.60;87.90;;;;;;5053026;28;19920;-78
2022/09/07 06:52:09;;;;;;;;;;;18.60;88.00;;;;;;5042377;28;20293;-77
2022/09/07 06:54:35;;;;;;;;;;;18.70;87.80;;;;;;5044995;28;19944;-79
2022/09/07 06:57:07;;;;;;;;;;;18.80;87.90;;;;;;5047819;28;19921;-78
2022/09/07 06:59:35;;;;;;;;;;;19.00;88.10;;;;;;5050825;28;19944;-77
2022/09/07 07:02:01;;;;;;;;;;;19.00;88.00;;;;;;5049831;28;19928;-78
2022/09/07 07:04:26;;;;;;;;;;;19.10;87.70;;;;;;5037856;28;19910;-77
2022/09/07 07:06:52;;;;;;;;;;;19.10;87.70;;;;;;5044894;28;19916;-78
2022/09/07 07:09:17;;;;;;;;;;;19.10;87.60;;;;;;5053482;28;19909;-78
2022/09/07 07:11:46;;;;;;;;;;;19.20;87.60;;;;;;5051925;28;20109;-78
2022/09/07 07:14:15;;;;;;;;;;;19.20;87.20;;;;;;5053530;28;19970;-78
2022/09/07 07:16:40;;;;;;;;;;;19.20;87.40;;;;;;5051814;28;19920;-78
2022/09/07 07:19:05;;;;;;;;;;;19.30;87.60;;;;;;5053433;28;19908;-79
2022/09/07 07:21:31;;;;;;;;;;;19.30;87.10;;;;;;5054127;28;20063;-79
2022/09/07 07:23:56;;;;;;;;;;;19.30;86.90;;;;;;5038527;28;19960;-78
2022/09/07 07:26:25;;;;;;;;;;;19.40;87.20;;;;;;5068350;28;19909;-78
2022/09/07 07:28:54;;;;;;;;;;;19.50;87.20;;;;;;5049254;28;20211;-78
2022/09/07 07:31:20;;;;;;;;;;;19.60;87.40;;;;;;5051032;28;19920;-78
2022/09/07 07:33:47;;;;;;;;;;;19.60;87.10;;;;;;5052047;28;20507;-77
2022/09/07 07:36:19;;;;;;;;;;;19.80;85.70;;;;;;5052347;28;19920;-78
2022/09/07 07:38:46;;;;;;;;;;;19.80;85.30;;;;;;5051496;28;19913;-78
2022/09/07 07:41:12;;;;;;;;;;;19.80;85.10;;;;;;5051857;28;19909;-78
2022/09/07 07:43:37;;;;;;;;;;;19.80;85.80;;;;;;5051510;28;20015;-77
2022/09/07 07:46:03;;;;;;;;;;;20.00;85.70;;;;;;5051596;28;19995;-77
2022/09/07 07:48:30;;;;;;;;;;;20.10;86.10;;;;;;5051835;28;19963;-78
2022/09/07 07:51:14;;;;;;;;;;;20.20;85.40;;;;;;5049679;28;19916;-78
2022/09/07 07:53:40;;;;;;;;;;;20.30;85.70;;;;;;5045214;28;19999;-78
2022/09/07 07:56:07;;;;;;;;;;;20.40;84.00;;;;;;5031591;28;19909;-78
2022/09/07 07:58:33;;;;;;;;;;;20.30;82.90;;;;;;5030208;28;20281;-79
2022/09/07 08:01:00;;;;;;;;;;;20.30;82.50;;;;;;5029383;28;20338;-78
2022/09/07 08:03:26;;;;;;;;;;;20.30;82.10;;;;;;5030572;28;19917;-77
2022/09/07 08:05:52;;;;;;;;;;;20.30;82.40;;;;;;5028909;28;19909;-77
2022/09/07 08:08:18;;;;;;;;;;;20.40;82.60;;;;;;5029122;28;19916;-77
2022/09/07 08:10:46;;;;;;;;;;;20.50;83.00;;;;;;5029705;28;19932;-77
2022/09/07 08:13:13;;;;;;;;;;;20.60;81.70;;;;;;5030554;28;19909;-77
2022/09/07 08:15:44;;;;;;;;;;;20.60;81.80;;;;;;5028800;28;20370;-77
2022/09/07 08:18:11;;;;;;;;;;;20.60;82.00;;;;;;5048586;28;19913;-77
2022/09/07 08:20:37;;;;;;;;;;;20.70;81.90;;;;;;5049573;28;19951;-77
2022/09/07 08:23:02;;;;;;;;;;;20.90;80.50;;;;;;5049117;28;19918;-77
2022/09/07 08:25:28;;;;;;;;;;;21.00;80.50;;;;;;5050165;28;20291;-78
2022/09/07 08:27:53;;;;;;;;;;;21.10;81.00;;;;;;5049909;28;19963;-77
2022/09/07 08:30:19;;;;;;;;;;;21.20;79.70;;;;;;5050473;28;19912;-77
2022/09/07 08:32:44;;;;;;;;;;;21.30;77.50;;;;;;5053143;28;19919;-78
2022/09/07 08:35:10;;;;;;;;;;;21.40;77.30;;;;;;5051465;28;19909;-77
2022/09/07 08:37:35;;;;;;;;;;;21.60;75.20;;;;;;5057514;28;19913;-78
2022/09/07 08:40:01;;;;;;;;;;;21.60;75.80;;;;;;5054971;28;19916;-78
2022/09/07 08:42:50;;;;;;;;;;;21.50;77.00;;;;;;5055763;28;20131;-78
2022/09/07 08:45:20;;;;;;;;;;;21.60;76.90;;;;;;5035616;28;19909;-78
2022/09/07 08:47:49;;;;;;;;;;;21.60;75.70;;;;;;5030788;28;19916;-78
2022/09/07 08:50:17;;;;;;;;;;;21.60;75.70;;;;;;5034305;28;19912;-78
2022/09/07 08:52:43;;;;;;;;;;;21.70;75.20;;;;;;5045837;28;19912;-78
2022/09/07 08:55:14;;;;;;;;;;;21.80;74.80;;;;;;5051213;28;19909;-77
2022/09/07 08:57:42;;;;;;;;;;;22.00;74.80;;;;;;5054079;28;19909;-77
2022/09/07 09:00:13;;;;;;;;;;;22.10;74.20;;;;;;4991581;28;1741821;-77
2022/09/07 09:02:39;;;;;;;;;;;22.10;72.80;;;;;;5052259;28;20383;-76
2022/09/07 09:05:13;;;;;;;;;;;22.20;73.40;;;;;;5053869;28;19996;-77
2022/09/07 09:07:52;;;;;;;;;;;22.10;72.50;;;;;;5053813;28;19959;-78
2022/09/07 09:10:29;;;;;;;;;;;22.10;73.20;;;;;;5056383;28;19955;-78
2022/09/07 09:13:16;;;;;;;;;;;22.00;72.70;;;;;;5055843;28;19909;-78
2022/09/07 09:16:00;;;;;;;;;;;21.90;73.00;;;;;;5060287;28;19972;-77
2022/09/07 09:18:29;;;;;;;;;;;22.00;73.50;;;;;;5058912;28;19909;-78
2022/09/07 09:20:55;;;;;;;;;;;22.00;74.50;;;;;;5059180;28;20381;-77
2022/09/07 09:23:25;;;;;;;;;;;22.10;72.60;;;;;;5050935;28;19917;-78
2022/09/07 09:25:52;;;;;;;;;;;22.30;71.90;;;;;;5052585;28;19917;-78
2022/09/07 09:28:18;;;;;;;;;;;22.50;71.20;;;;;;5057556;28;19916;-78
2022/09/07 09:30:43;;;;;;;;;;;22.60;71.50;;;;;;5058346;28;19917;-78
2022/09/07 09:33:20;;;;;;;;;;;22.60;71.00;;;;;;5054090;28;20416;-79
2022/09/07 09:35:48;;;;;;;;;;;22.60;73.20;;;;;;5056219;28;19948;-78
2022/09/07 09:38:28;;;;;;;;;;;22.80;71.10;;;;;;5041248;28;19966;-79
2022/09/07 09:40:54;;;;;;;;;;;22.90;71.20;;;;;;5057391;28;19917;-78
2022/09/07 09:43:20;;;;;;;;;;;22.80;71.40;;;;;;5059816;28;19919;-78
2022/09/07 09:45:56;;;;;;;;;;;23.00;70.60;;;;;;5060702;28;19909;-78
2022/09/07 09:48:36;;;;;;;;;;;23.20;70.50;;;;;;5060185;28;19913;-78
2022/09/07 09:51:03;;;;;;;;;;;23.30;71.00;;;;;;5057397;28;19919;-77
2022/09/07 09:53:34;;;;;;;;;;;23.30;69.60;;;;;;5034513;28;20364;-78
2022/09/07 09:56:00;;;;;;;;;;;23.40;69.00;;;;;;5045939;28;20536;-78
2022/09/07 09:58:32;;;;;;;;;;;23.30;68.70;;;;;;5041487;28;19912;-77
2022/09/07 10:01:00;;;;;;;;;;;23.10;70.10;;;;;;5051171;28;19921;-77
2022/09/07 10:03:26;;;;;;;;;;;23.10;68.10;;;;;;5052348;28;19917;-80
2022/09/07 10:05:53;;;;;;;;;;;22.90;67.90;;;;;;5055972;28;20011;-82
2022/09/07 10:08:23;;;;;;;;;;;22.80;69.10;;;;;;5053249;28;19913;-80
2022/09/07 10:10:50;;;;;;;;;;;22.60;68.50;;;;;;5060678;28;19904;-79
2022/09/07 10:13:20;;;;;;;;;;;22.70;67.80;;;;;;5065664;28;19909;-79
2022/09/07 10:15:49;;;;;;;;;;;22.80;67.30;;;;;;5062331;28;19908;-79
2022/09/07 10:18:17;;;;;;;;;;;22.70;67.70;;;;;;5067249;28;19912;-79
2022/09/07 10:20:42;;;;;;;;;;;22.70;66.20;;;;;;5059135;28;19916;-78
2022/09/07 10:23:18;;;;;;;;;;;22.70;65.90;;;;;;5059649;28;20442;-79
2022/09/07 10:25:43;;;;;;;;;;;22.80;65.90;;;;;;5059677;28;19955;-80
2022/09/07 10:28:10;;;;;;;;;;;23.10;66.50;;;;;;5057420;28;19913;-80
2022/09/07 10:30:55;;;;;;;;;;;23.10;68.40;;;;;;5080905;28;19916;-80
2022/09/07 10:33:24;;;;;;;;;;;23.20;68.10;;;;;;5050105;28;19916;-80
2022/09/07 10:35:58;;;;;;;;;;;23.30;64.70;;;;;;5059458;28;19962;-79
2022/09/07 10:38:27;;;;;;;;;;;23.50;65.30;;;;;;5059567;28;19995;-80
2022/09/07 10:41:06;;;;;;;;;;;23.60;65.60;;;;;;5057836;28;20511;-79
2022/09/07 10:43:42;;;;;;;;;;;23.60;65.20;;;;;;5057278;28;20007;-80
2022/09/07 10:46:23;;;;;;;;;;;23.70;64.30;;;;;;5056627;28;19987;-80
2022/09/07 10:49:07;;;;;;;;;;;23.50;66.10;;;;;;5057427;28;19908;-79
2022/09/07 10:51:36;;;;;;;;;;;23.60;66.00;;;;;;5057776;28;19909;-78
2022/09/07 10:54:23;;;;;;;;;;;23.60;66.60;;;;;;5073135;28;19971;-82
2022/09/07 10:56:49;;;;;;;;;;;23.50;67.70;;;;;;5058035;28;19970;-80
2022/09/07 10:59:30;;;;;;;;;;;23.50;67.30;;;;;;5057458;28;19948;-79
2022/09/07 11:02:11;;;;;;;;;;;23.70;67.80;;;;;;5100640;22;19929;-81
2022/09/07 11:04:49;;;;;;;;;;;23.80;66.60;;;;;;5049068;28;20363;-83
2022/09/07 11:07:29;;;;;;;;;;;23.80;68.20;;;;;;5040125;28;19959;-84
2022/09/07 11:09:57;;;;;;;;;;;24.00;66.20;;;;;;5054214;28;19955;-83
2022/09/07 11:12:25;;;;;;;;;;;24.00;65.60;;;;;;5025994;28;19916;-83
2022/09/07 11:15:13;;;;;;;;;;;24.10;66.00;;;;;;5047804;28;19936;-83
2022/09/07 11:17:46;;;;;;;;;;;24.10;67.40;;;;;;5061696;28;19913;-83
2022/09/07 11:20:32;;;;;;;;;;;24.10;67.00;;;;;;5039684;28;19913;-83
2022/09/07 11:23:02;;;;;;;;;;;24.10;66.40;;;;;;5055882;28;19913;-83
2022/09/07 11:25:38;;;;;;;;;;;24.00;66.90;;;;;;5017347;28;19910;-83
2022/09/07 11:28:13;;;;;;;;;;;24.00;66.80;;;;;;5018351;28;19916;-83
2022/09/07 11:30:45;;;;;;;;;;;24.00;62.90;;;;;;5031939;28;19909;-83
2022/09/07 11:33:10;;;;;;;;;;;24.00;62.30;;;;;;5054539;28;20327;-83
2022/09/07 11:35:45;;;;;;;;;;;23.70;62.90;;;;;;5036831;28;19909;-82
2022/09/07 11:38:34;;;;;;;;;;;23.60;63.50;;;;;;5053678;28;19948;-83
2022/09/07 11:41:05;;;;;;;;;;;23.50;64.00;;;;;;5030907;28;19916;-83
2022/09/07 11:43:35;;;;;;;;;;;23.60;62.90;;;;;;5037398;28;20019;-83
2022/09/07 11:46:06;;;;;;;;;;;23.60;62.90;;;;;;5055670;28;19912;-83
2022/09/07 11:48:43;;;;;;;;;;;23.70;63.40;;;;;;5037552;28;19967;-83
2022/09/07 11:51:24;;;;;;;;;;;23.60;64.80;;;;;;5037956;28;20406;-83
2022/09/07 11:53:52;;;;;;;;;;;23.80;64.30;;;;;;5054692;28;19908;-83
2022/09/07 11:56:36;;;;;;;;;;;24.00;63.90;;;;;;5020958;28;20350;-83
2022/09/07 11:59:09;;;;;;;;;;;24.00;64.10;;;;;;5035481;28;19919;-83
2022/09/07 12:02:03;;;;;;;;;;;24.00;62.70;;;;;;5053906;28;19916;-83
2022/09/07 12:04:38;;;;;;;;;;;24.10;63.30;;;;;;5035093;28;19917;-83
2022/09/07 12:07:22;;;;;;;;;;;24.00;64.60;;;;;;5032626;28;19932;-80
2022/09/07 12:10:06;;;;;;;;;;;24.00;63.30;;;;;;5048355;28;19920;-81
2022/09/07 12:12:42;;;;;;;;;;;24.00;63.90;;;;;;5041162;28;19909;-81
2022/09/07 12:15:26;;;;;;;;;;;24.00;64.70;;;;;;5055186;28;20349;-81
2022/09/07 12:18:03;;;;;;;;;;;24.20;63.60;;;;;;5043043;28;19914;-82
2022/09/07 12:20:38;;;;;;;;;;;24.20;63.70;;;;;;5029733;28;19913;-81
2022/09/07 12:23:06;;;;;;;;;;;24.30;64.10;;;;;;5032947;28;19912;-80
2022/09/07 12:25:32;;;;;;;;;;;24.40;62.90;;;;;;5050958;28;19960;-80
2022/09/07 12:27:57;;;;;;;;;;;24.30;63.50;;;;;;5047894;28;19910;-82
2022/09/07 12:30:23;;;;;;;;;;;24.30;62.00;;;;;;5031390;28;19935;-83
2022/09/07 12:32:52;;;;;;;;;;;24.30;61.80;;;;;;5037285;28;19913;-83
2022/09/07 12:35:27;;;;;;;;;;;24.30;61.60;;;;;;5051269;28;20280;-82
2022/09/07 12:37:59;;;;;;;;;;;24.20;61.80;;;;;;5039640;28;19909;-82
2022/09/07 12:40:32;;;;;;;;;;;24.40;60.90;;;;;;5035094;28;19959;-82
2022/09/07 12:43:10;;;;;;;;;;;24.50;60.80;;;;;;5050396;28;20414;-83
2022/09/07 12:45:35;;;;;;;;;;;24.40;60.70;;;;;;5050711;28;19897;-85
2022/09/07 12:48:07;;;;;;;;;;;24.50;61.80;;;;;;5071825;28;20406;-83
2022/09/07 12:50:40;;;;;;;;;;;24.70;61.20;;;;;;5041420;28;19916;-84
2022/09/07 12:53:11;;;;;;;;;;;24.80;58.90;;;;;;5057744;28;19976;-84
2022/09/07 12:55:52;;;;;;;;;;;24.70;60.40;;;;;;5053607;28;20256;-85
2022/09/07 12:58:41;;;;;;;;;;;24.90;60.20;;;;;;5036068;28;20019;-86
2022/09/07 13:01:18;;;;;;;;;;;24.70;59.10;;;;;;5049080;28;20007;-86
2022/09/07 13:03:58;;;;;;;;;;;24.50;60.10;;;;;;5042128;28;19917;-86
2022/09/07 13:06:43;;;;;;;;;;;24.50;61.80;;;;;;5033221;28;19948;-86
2022/09/07 13:09:17;;;;;;;;;;;24.30;61.30;;;;;;5036914;28;19908;-84
2022/09/07 13:11:43;;;;;;;;;;;24.50;62.00;;;;;;5039296;28;19909;-85
2022/09/07 13:14:12;;;;;;;;;;;24.70;60.10;;;;;;5038882;28;20382;-84
2022/09/07 13:16:38;;;;;;;;;;;24.90;59.40;;;;;;5057580;28;19913;-84
2022/09/07 13:19:05;;;;;;;;;;;24.80;59.20;;;;;;5039606;28;19963;-83
2022/09/07 13:21:33;;;;;;;;;;;24.60;59.60;;;;;;5044844;28;19960;-84
2022/09/07 13:24:22;;;;;;;;;;;24.50;60.20;;;;;;5041718;28;20370;-85
2022/09/07 13:26:59;;;;;;;;;;;24.50;60.50;;;;;;5049936;28;19915;-84
2022/09/07 13:29:31;;;;;;;;;;;24.50;60.70;;;;;;5034124;28;19913;-82
2022/09/07 13:32:06;;;;;;;;;;;24.60;60.80;;;;;;5038039;28;19956;-81
2022/09/07 13:34:32;;;;;;;;;;;24.50;61.70;;;;;;5066740;28;19924;-81
2022/09/07 13:36:59;;;;;;;;;;;24.50;62.10;;;;;;5059019;28;20039;-81
2022/09/07 13:39:24;;;;;;;;;;;24.60;61.50;;;;;;5043002;28;20335;-83
2022/09/07 13:41:52;;;;;;;;;;;24.70;62.00;;;;;;5042483;28;19971;-82
2022/09/07 13:44:19;;;;;;;;;;;24.80;62.30;;;;;;5044880;28;19971;-84
2022/09/07 13:46:51;;;;;;;;;;;24.90;61.20;;;;;;5035512;28;20311;-84
2022/09/07 13:49:34;;;;;;;;;;;24.90;61.30;;;;;;5039068;28;19919;-82
2022/09/07 13:52:12;;;;;;;;;;;25.00;60.60;;;;;;5037130;28;19913;-85
2022/09/07 13:54:57;;;;;;;;;;;24.80;61.50;;;;;;5039333;28;19909;-81
2022/09/07 13:57:45;;;;;;;;;;;24.90;62.00;;;;;;5025683;28;19974;-80
2022/09/07 14:00:14;;;;;;;;;;;24.80;60.90;;;;;;5045383;28;19948;-80
2022/09/07 14:02:40;;;;;;;;;;;24.80;61.40;;;;;;5048768;28;19963;-81
2022/09/07 14:05:07;;;;;;;;;;;24.60;62.60;;;;;;5036602;28;19913;-80
2022/09/07 14:07:32;;;;;;;;;;;24.60;62.40;;;;;;5054651;28;19959;-83
2022/09/07 14:10:13;;;;;;;;;;;24.50;62.60;;;;;;5052180;28;19952;-83
2022/09/07 14:12:47;;;;;;;;;;;24.50;62.50;;;;;;5058469;28;20360;-81
2022/09/07 14:15:16;;;;;;;;;;;24.50;62.60;;;;;;5031389;28;20000;-82
2022/09/07 14:17:42;;;;;;;;;;;24.30;63.30;;;;;;5045602;28;19944;-78
2022/09/07 14:20:11;;;;;;;;;;;24.40;63.50;;;;;;5049412;28;19912;-80
2022/09/07 14:22:38;;;;;;;;;;;24.40;63.60;;;;;;5047974;28;19920;-80
2022/09/07 14:25:04;;;;;;;;;;;24.50;63.40;;;;;;5045191;28;19915;-80
2022/09/07 14:27:33;;;;;;;;;;;24.50;63.60;;;;;;5038214;28;19976;-80
2022/09/07 14:30:34;;;;;;;;;;;24.50;63.90;;;;;;5062949;28;19947;-81